Flight Track Log - Related Links

Times and Time Zones

All times are in EDT time to prevent confusion due to time zone crossing. See the DAL1578 flight status page for this flight to view local times or setup timezone preferences in your user account.

Time Position Orientation Groundspeed Altitude Reporting Facility
EDT Latitude Longitude Course Direction KTS MPH feet Rate Location/Type
Sat 09:28:35 AM 33.9042 -118.4736 23° Northeast 208 239 3,500  Level Los Angeles Center
Sat 09:29:35 AM 33.8325 -118.4961 195° South 268 308 6,600 3,223 Climbing Los Angeles Center
Sat 09:30:00 AM 33.7467 -118.5959 134° Southeast  Level FlightAware Approximate
Sat 09:30:36 AM 33.7628 -118.5100 189° South 282 325 10,000  Level Los Angeles Center
Sat 09:31:00 AM 33.6750 -118.4667 101° East  Level FlightAware Approximate
Sat 09:31:37 AM 33.6722 -118.4703 160° South 340 391 12,800  Level Los Angeles Center
Sat 09:32:00 AM 33.6333 -118.3159 90° East  Level FlightAware Approximate
Sat 09:32:37 AM 33.6500 -118.3528 103° East 367 422 15,400  Level Los Angeles Center
Sat 09:33:00 AM 33.6422 -118.1622 23° Northeast  Level FlightAware Approximate
Sat 09:33:38 AM 33.6294 -118.2286 101° East 386 444 17,000  Level Los Angeles Center
Sat 09:34:39 AM 33.6553 -118.1042 76° East 406 467 17,600 934 Climbing Los Angeles Center
Sat 09:35:40 AM 33.7528 -118.0264 34° Northeast 436 502 18,900 1,736 Climbing Los Angeles Center
Sat 09:36:40 AM 33.8597 -117.9475 31° Northeast 453 521 21,100 2,380 Climbing Los Angeles Center
Sat 09:37:41 AM 33.9922 -117.8483 32° Northeast 470 541 23,700 2,164 Climbing Los Angeles Center
Sat 09:38:42 AM 34.1017 -117.7597 34° Northeast 476 548 25,500 1,623 Climbing Los Angeles Center
Sat 09:39:43 AM 34.1947 -117.6356 48° Northeast 496 571 27,000 1,475 Climbing Los Angeles Center
Sat 09:40:44 AM 34.2878 -117.5089 48° Northeast 505 581 28,500 1,721 Climbing Los Angeles Center
Sat 09:41:45 AM 34.3817 -117.3786 49° Northeast 513 590 30,500 1,785 Climbing Los Angeles Center
Sat 09:42:45 AM 34.4661 -117.2622 49° Northeast 509 586 32,100 1,587 Climbing Los Angeles Center
Sat 09:43:46 AM 34.5586 -117.1350 49° Northeast 508 585 33,700 1,574 Climbing Los Angeles Center
Sat 09:44:47 AM 34.6697 -116.9822 48° Northeast 507 583 35,300 1,377 Climbing Los Angeles Center
Sat 09:45:48 AM 34.7619 -116.8547 49° Northeast 508 585 36,500 1,180 Climbing Los Angeles Center
Sat 09:46:49 AM 34.8564 -116.7239 49° Northeast 514 592 37,700 1,230 Climbing Los Angeles Center
Sat 09:47:50 AM 34.9469 -116.5953 49° Northeast 507 583 39,000 639 Climbing Los Angeles Center
Sat 09:48:51 AM 35.0422 -116.4742 46° Northeast 500 575 39,000  Level Los Angeles Center
Sat 09:49:52 AM 35.1394 -116.3522 46° Northeast 501 577 39,000  Level Los Angeles Center
Sat 09:50:53 AM 35.2392 -116.2311 45° Northeast 505 581 39,000  Level Los Angeles Center
Sat 09:51:54 AM 35.3336 -116.1083 47° Northeast 501 577 39,000  Level Los Angeles Center
Sat 09:52:55 AM 35.4436 -115.9703 46° Northeast 503 579 39,000  Level Los Angeles Center
Sat 09:53:55 AM 35.5314 -115.8631 45° Northeast 507 583 39,000  Level Los Angeles Center
Sat 09:54:56 AM 35.6464 -115.7194 45° Northeast 495 570 39,000  Level Los Angeles Center
Sat 09:55:57 AM 35.7431 -115.5936 47° Northeast 502 578 39,000  Level Los Angeles Center
Sat 09:56:58 AM 35.8400 -115.4686 46° Northeast 506 582 39,000  Level Los Angeles Center
Sat 09:57:59 AM 35.9358 -115.3453 46° Northeast 505 581 39,000  Level Los Angeles Center
Sat 09:59:00 AM 36.0314 -115.2231 46° Northeast 501 577 39,000  Level Los Angeles Center
Sat 10:00:01 AM 36.1247 -115.0983 47° Northeast 498 573 39,000  Level Los Angeles Center
Sat 10:01:02 AM 36.2219 -114.9783 45° Northeast 499 574 39,000  Level Los Angeles Center
Sat 10:02:03 AM 36.3186 -114.8564 45° Northeast 499 574 39,000  Level Los Angeles Center
Sat 10:03:04 AM 36.4147 -114.7322 46° Northeast 500 575 39,000  Level Los Angeles Center
Sat 10:04:05 AM 36.5369 -114.5931 42° Northeast 500 575 39,000  Level Los Angeles Center
Sat 10:05:06 AM 36.6519 -114.4983 33° Northeast 497 572 39,000  Level Los Angeles Center
Sat 10:06:07 AM 36.7661 -114.4022 34° Northeast 497 572 39,000  Level Los Angeles Center
Sat 10:07:08 AM 36.8792 -114.3064 34° Northeast 494 568 39,000  Level Los Angeles Center
Sat 10:08:09 AM 36.9922 -114.2103 34° Northeast 492 566 39,000  Level Los Angeles Center
Sat 10:09:10 AM 37.1042 -114.1139 34° Northeast 490 564 39,000  Level Los Angeles Center
Sat 10:10:11 AM 37.2167 -114.0175 34° Northeast 489 563 39,000 -443 Level Los Angeles Center
Sat 10:11:12 AM 37.3381 -113.9114 35° Northeast 486 559 38,100 -1,610 Descending Los Angeles Center
Sat 10:12:14 AM 37.4486 -113.8147 35° Northeast 484 557 35,700 -2,273 Descending Los Angeles Center
Sat 10:13:24 AM 37.5833 -113.6989 34° Northeast 487 560 33,100 -1,237 Descending Salt Lake Center
Sat 10:14:25 AM 37.6989 -113.5981 35° Northeast 496 571 33,000 -49 Descending Salt Lake Center
Sat 10:15:26 AM 37.8156 -113.4978 34° Northeast 502 578 33,000  Level Salt Lake Center
Sat 10:16:27 AM 37.9478 -113.4319 21° North 504 580 33,000  Level Salt Lake Center
Sat 10:17:29 AM 38.0792 -113.3614 23° Northeast 508 585 33,000 -49 Level Salt Lake Center
Sat 10:18:30 AM 38.2103 -113.2869 24° Northeast 512 589 32,900 -639 Descending Salt Lake Center
Sat 10:19:31 AM 38.3392 -113.2144 24° Northeast 507 583 31,700 -934 Descending Salt Lake Center
Sat 10:20:32 AM 38.4703 -113.1411 24° Northeast 509 586 31,000 -344 Descending Salt Lake Center
Sat 10:21:33 AM 38.6036 -113.0703 23° Northeast 513 590 31,000  Level Salt Lake Center
Sat 10:22:34 AM 38.7369 -112.9986 23° Northeast 516 594 31,000  Level Salt Lake Center
Sat 10:23:35 AM 38.8689 -112.9222 24° Northeast 518 596 31,000  Level Salt Lake Center
Sat 10:24:36 AM 39.0003 -112.8475 24° Northeast 517 595 31,000 -393 Level Salt Lake Center
Sat 10:25:37 AM 39.1303 -112.7753 23° Northeast 511 588 30,200 -878 Descending Salt Lake Center
Sat 10:26:39 AM 39.2831 -112.6894 23° Northeast 502 578 29,200 -829 Descending Salt Lake Center
Sat 10:27:40 AM 39.4094 -112.6192 23° Northeast 501 577 28,500 -1,377 Descending Salt Lake Center
Sat 10:28:41 AM 39.5328 -112.5489 24° Northeast 488 562 26,400 -2,115 Descending Salt Lake Center
Sat 10:29:42 AM 39.6536 -112.4811 23° Northeast 478 550 24,200 -2,213 Descending Salt Lake Center
Sat 10:30:43 AM 39.7703 -112.4147 24° Northeast 464 534 21,900 -2,146 Descending Salt Lake Center
Sat 10:31:45 AM 39.8861 -112.3483 24° Northeast 455 524 19,800 -2,182 Descending Salt Lake Center
Sat 10:32:33 AM 39.9814 -112.3042 20° North 437 503 17,900 -2,077 Descending Salt Lake Center
Sat 10:33:03 AM 40.0439 -112.2722 21° North 430 495 17,100 -730 Descending Salt Lake Center
Sat 10:33:47 AM 40.1072 -112.2331 25° Northeast 423 487 17,000 -492 Descending Salt Lake Center
Sat 10:34:04 AM 40.1519 -112.2306 North 423 487 16,600 -1,770 Descending Salt Lake Center
Sat 10:34:48 AM 40.2194 -112.1972 21° North 416 479 15,200 -2,164 Descending Salt Lake Center
Sat 10:35:05 AM 40.2625 -112.1908 North 411 473 14,400 -1,258 Descending Salt Lake Center
Sat 10:35:50 AM 40.3261 -112.1617 19° North 398 458 13,900 -792 Descending Salt Lake Center
Sat 10:36:51 AM 40.4450 -112.1211 15° North 365 420 13,000 -787 Descending Salt Lake Center
Sat 10:37:52 AM 40.5414 -112.0883 14° North 360 414 12,300 -876 Descending Salt Lake Center
Sat 10:39:08 AM 40.6656 -112.0836 North 350 403 11,000 -634 Descending Salt Lake Center
Sat 10:39:55 AM 40.7344 -112.0892 357° North 344 396 11,000 -111 Level Salt Lake Center
Sat 10:40:56 AM 40.8111 -112.0972 355° North 269 310 10,800 -885 Descending Salt Lake Center
Sat 10:41:57 AM 40.8761 -112.1058 354° North 237 273 9,200 -1,415 Descending Salt Lake Center
Sat 10:42:59 AM 40.9411 -112.1050 North 239 275 7,900 -1,171 Descending Salt Lake Center
Sat 10:44:00 AM 40.9506 -112.0308 80° East 229 264 6,800 -1,082 Descending Salt Lake Center

Login

Don't have an account? Register now (free) for customized features, flight alerts, and more!